Time;durP1;ratioP1;P1;durP2;ratioP2;P2;SDS_P1;SDS_P2;PMS_P1;PMS_P2;Temp;Humidity;BMP_temperature;BMP_pressure;BME280_temperature;BME280_humidity;BME280_pressure;Samples;Min_cycle;Max_cycle;Signal;HPM_P1;HPM_P2
2021/03/01 05:08:40;;;;;;;16.62;13.48;;;;;;;1.43;100.00;101822.49;1769165;79;21187;-86
2021/03/01 05:16:54;;;;;;;20.17;14.23;;;;;;;1.42;100.00;101833.63;1830536;77;22813;-87
2021/03/01 05:19:22;;;;;;;19.67;14.68;;;;;;;1.32;100.00;101835.97;1768140;79;21163;-87
2021/03/01 05:21:50;;;;;;;25.48;16.25;;;;;;;1.26;100.00;101842.88;1757114;79;21998;-87
2021/03/01 05:24:21;;;;;;;21.42;16.17;;;;;;;1.24;100.00;101843.33;1761056;80;21175;-87
2021/03/01 05:26:49;;;;;;;20.02;15.83;;;;;;;1.22;100.00;101854.08;1763667;80;21175;-87
2021/03/01 05:37:46;;;;;;;25.50;17.35;;;;;;;0.94;100.00;101869.88;1767275;79;21286;-87
2021/03/01 05:40:14;;;;;;;21.23;15.45;;;;;;;0.84;100.00;101877.28;1760805;81;21080;-87
2021/03/01 05:43:11;;;;;;;20.72;15.20;;;;;;;0.79;100.00;101880.36;1772480;79;21127;-86
2021/03/01 05:45:39;;;;;;;19.75;15.78;;;;;;;0.80;100.00;101887.64;1735001;82;21214;-85
2021/03/01 05:48:11;;;;;;;33.55;17.32;;;;;;;0.78;100.00;101892.34;1748445;79;21168;-86
2021/03/01 05:50:41;;;;;;;58.80;18.95;;;;;;;0.78;100.00;101894.91;1762238;79;21597;-86
2021/03/01 05:53:16;;;;;;;;;;;;;;;0.96;100.00;101894.66;1765096;79;21178;-86
2021/03/01 05:55:43;;;;;;;26.52;16.20;;;;;;;1.18;100.00;101897.32;1758855;80;20238;-86
2021/03/01 05:58:13;;;;;;;31.15;17.48;;;;;;;1.32;100.00;101906.55;1762723;80;21158;-87
2021/03/01 06:00:41;;;;;;;32.58;16.87;;;;;;;1.44;100.00;101903.77;1747572;81;21203;-86
2021/03/01 06:03:10;;;;;;;25.97;15.83;;;;;;;1.58;100.00;101908.23;1754202;81;21256;-86
2021/03/01 06:05:38;;;;;;;31.50;15.95;;;;;;;1.75;100.00;101909.67;1734850;82;21226;-86
2021/03/01 06:08:10;;;;;;;24.75;14.73;;;;;;;1.86;100.00;101903.92;1734653;82;21190;-86
2021/03/01 06:10:38;;;;;;;35.33;14.40;;;;;;;1.99;100.00;101915.24;1734977;82;21226;-85
2021/03/01 06:13:07;;;;;;;53.83;15.72;;;;;;;2.13;100.00;101917.11;1735088;81;21063;-85
2021/03/01 06:15:37;;;;;;;23.95;14.85;;;;;;;2.26;100.00;101911.75;1744543;80;21379;-85
2021/03/01 06:18:12;;;;;;;31.25;13.95;;;;;;;2.37;100.00;101913.66;1793343;78;21142;-86
2021/03/01 06:20:42;;;;;;;24.90;15.32;;;;;;;2.42;100.00;101918.70;1793160;80;21206;-86
2021/03/01 06:23:11;;;;;;;19.80;13.98;;;;;;;2.41;100.00;101920.45;1793292;80;21366;-85
2021/03/01 06:25:39;;;;;;;20.70;14.95;;;;;;;2.40;100.00;101922.61;1781712;80;21603;-85
2021/03/01 06:28:08;;;;;;;28.23;15.65;;;;;;;2.41;100.00;101926.88;1792912;80;21345;-85
2021/03/01 06:30:40;;;;;;;31.97;16.07;;;;;;;2.41;100.00;101931.16;1793314;80;21060;-85
2021/03/01 06:33:18;;;;;;;23.85;15.93;;;;;;;2.39;100.00;101933.76;1793311;80;21614;-86
2021/03/01 06:35:51;;;;;;;27.58;16.65;;;;;;;2.46;100.00;101942.21;1793241;80;21645;-87
2021/03/01 06:38:26;;;;;;;27.30;16.37;;;;;;;2.51;100.00;101939.97;1793326;80;21051;-86
2021/03/01 06:41:11;;;;;;;20.92;13.75;;;;;;;2.58;100.00;101947.55;1793282;80;21558;-86
2021/03/01 06:43:56;;;;;;;27.52;14.15;;;;;;;2.61;100.00;101951.33;1785002;80;21079;-86
2021/03/01 06:46:30;;;;;;;21.45;13.80;;;;;;;2.58;100.00;101955.27;1760711;81;21151;-86
2021/03/01 06:49:18;;;;;;;20.97;13.62;;;;;;;2.46;100.00;101962.33;1762008;81;21131;-85
2021/03/01 06:51:48;;;;;;;21.85;14.80;;;;;;;2.41;100.00;101956.86;1761996;81;21206;-87
2021/03/01 06:54:24;;;;;;;24.82;14.15;;;;;;;2.38;100.00;101957.77;1762022;81;22267;-86
2021/03/01 06:56:52;;;;;;;21.30;13.48;;;;;;;2.36;100.00;101956.98;1761772;81;21135;-86
2021/03/01 06:59:21;;;;;;;19.77;13.28;;;;;;;2.31;100.00;101957.48;1762174;81;21186;-86
2021/03/01 07:01:55;;;;;;;17.42;12.33;;;;;;;2.28;100.00;101960.13;1761976;81;21190;-85
2021/03/01 07:04:29;;;;;;;22.40;13.80;;;;;;;2.23;100.00;101963.20;1762021;81;21170;-86
2021/03/01 07:07:00;;;;;;;18.37;13.38;;;;;;;2.17;100.00;101968.87;1762018;81;21220;-86
2021/03/01 07:09:34;;;;;;;22.67;13.90;;;;;;;2.12;100.00;101974.55;1761853;81;21147;-85
2021/03/01 07:12:03;;;;;;;19.02;12.45;;;;;;;2.10;100.00;101975.01;1784322;80;21179;-85
2021/03/01 07:14:31;;;;;;;18.62;12.68;;;;;;;2.10;100.00;101973.72;1793328;80;21155;-85
2021/03/01 07:17:00;;;;;;;21.73;14.45;;;;;;;2.09;100.00;101973.73;1771631;80;21133;-85
2021/03/01 07:19:34;;;;;;;25.08;14.20;;;;;;;2.06;100.00;101978.48;1765299;80;22403;-85
2021/03/01 07:22:09;;;;;;;21.17;13.15;;;;;;;2.04;100.00;101982.83;1761070;81;21588;-85
2021/03/01 07:24:37;;;;;;;18.37;13.03;;;;;;;2.02;100.00;101993.56;1746378;81;21198;-85
2021/03/01 07:27:07;;;;;;;20.23;12.07;;;;;;;2.05;100.00;101988.35;1764747;81;21222;-85
2021/03/01 07:29:39;;;;;;;19.00;12.03;;;;;;;2.09;100.00;101985.30;1764880;81;21171;-85
2021/03/01 07:32:15;;;;;;;24.27;12.93;;;;;;;2.13;100.00;101988.23;1765094;81;21371;-85
2021/03/01 07:34:41;;;;;;;17.87;12.40;;;;;;;2.13;100.00;101998.06;1755464;80;21178;-85
2021/03/01 07:37:09;;;;;;;16.75;12.93;;;;;;;2.18;100.00;101991.56;1750256;81;21080;-85
2021/03/01 07:39:37;;;;;;;17.52;12.37;;;;;;;2.19;100.00;101999.27;1759222;81;21173;-86
2021/03/01 07:42:06;;;;;;;14.58;11.15;;;;;;;2.18;100.00;101996.28;1764990;80;21545;-86
2021/03/01 07:44:36;;;;;;;13.95;10.93;;;;;;;2.13;100.00;101997.23;1758893;80;21559;-86
2021/03/01 07:47:05;;;;;;;13.58;10.30;;;;;;;2.09;100.00;101998.14;1764460;81;21129;-85
2021/03/01 07:49:45;;;;;;;12.03;9.93;;;;;;;2.05;100.00;102004.64;1757166;81;21186;-85
2021/03/01 07:52:21;;;;;;;13.80;8.80;;;;;;;2.05;100.00;102004.64;1734678;82;21206;-85
2021/03/01 07:55:02;;;;;;;13.20;9.95;;;;;;;1.97;100.00;102011.62;1746422;80;21483;-85
2021/03/01 07:57:32;;;;;;;9.40;7.78;;;;;;;1.82;100.00;102008.03;1755001;81;21489;-85
2021/03/01 08:00:23;;;;;;;10.82;8.18;;;;;;;1.69;100.00;102011.22;1774578;80;21178;-85
2021/03/01 08:02:51;;;;;;;8.95;7.33;;;;;;;1.63;100.00;102011.33;1759069;81;21532;-85
2021/03/01 08:05:29;;;;;;;10.08;6.65;;;;;;;1.56;100.00;102016.53;1765115;80;21125;-86
2021/03/01 08:07:59;;;;;;;7.85;6.12;;;;;;;1.53;100.00;102010.17;1765084;80;21113;-85
2021/03/01 08:10:33;;;;;;;8.80;6.80;;;;;;;1.53;100.00;102016.59;1764889;80;22266;-85
2021/03/01 08:13:04;;;;;;;7.28;6.12;;;;;;;1.48;100.00;102014.95;1754708;81;21187;-85
2021/03/01 08:15:38;;;;;;;8.23;5.95;;;;;;;1.43;100.00;102027.86;1735743;81;21162;-85
2021/03/01 08:18:10;;;;;;;6.97;5.30;;;;;;;1.37;100.00;102028.78;1759861;81;21139;-85
2021/03/01 08:20:43;;;;;;;5.78;4.33;;;;;;;1.34;100.00;102030.13;1781081;79;22159;-85
2021/03/01 08:23:14;;;;;;;6.75;5.20;;;;;;;1.31;100.00;102032.73;1773547;80;21254;-86
2021/03/01 08:25:50;;;;;;;5.62;4.65;;;;;;;1.28;100.00;102034.48;1793113;80;21570;-85
2021/03/01 08:28:32;;;;;;;5.83;4.65;;;;;;;1.23;100.00;102039.27;1793263;79;21126;-84
2021/03/01 08:31:09;;;;;;;;;;;;;;;1.19;100.00;102035.02;1769415;80;21177;-84
2021/03/01 08:33:37;;;;;;;7.62;4.22;;;;;;;1.17;100.00;102039.77;1789638;80;20563;-84
2021/03/01 08:36:16;;;;;;;5.50;4.58;;;;;;;1.16;100.00;102038.06;1767669;80;22634;-84
2021/03/01 08:38:50;;;;;;;4.53;4.00;;;;;;;1.16;100.00;102035.05;1761729;81;21150;-84
2021/03/01 08:41:32;;;;;;;5.87;4.75;;;;;;;1.17;100.00;102042.33;1761921;81;21158;-84
2021/03/01 08:44:02;;;;;;;;;;;;;;;1.19;100.00;102041.44;1763213;81;21175;-83
2021/03/01 08:46:30;;;;;;;5.12;3.98;;;;;;;1.21;100.00;102043.56;1763345;80;20288;-84
2021/03/01 08:48:59;;;;;;;5.55;4.37;;;;;;;1.20;100.00;102043.14;1770666;80;21340;-84
2021/03/01 08:51:28;;;;;;;4.72;3.72;;;;;;;1.21;100.00;102049.97;1761932;80;21498;-84
2021/03/01 08:53:57;;;;;;;3.80;3.42;;;;;;;1.22;100.00;102051.67;1761826;81;21606;-83
2021/03/01 08:56:27;;;;;;;4.45;2.90;;;;;;;1.24;100.00;102056.33;1777437;80;21126;-83
2021/03/01 08:58:55;;;;;;;3.85;3.33;;;;;;;1.26;100.00;102056.33;1766842;79;21123;-83
2021/03/01 09:01:23;;;;;;;5.65;4.28;;;;;;;1.30;100.00;102060.98;1773300;80;21210;-83
2021/03/01 09:03:52;;;;;;;5.40;4.25;;;;;;;1.30;100.00;102062.27;1773416;79;21581;-83
2021/03/01 09:06:23;;;;;;;6.20;5.15;;;;;;;1.34;100.00;102069.05;1793183;78;21184;-82
2021/03/01 09:08:55;;;;;;;5.92;4.37;;;;;;;1.36;100.00;102062.19;1793353;78;21176;-83
2021/03/01 09:11:30;;;;;;;4.92;4.20;;;;;;;1.40;100.00;102065.98;1778313;80;21136;-83
2021/03/01 09:14:01;;;;;;;5.10;4.28;;;;;;;1.43;100.00;102066.36;1770536;80;21154;-83
2021/03/01 09:16:33;;;;;;;7.17;5.25;;;;;;;1.47;100.00;102062.90;1759594;80;21087;-83
2021/03/01 09:19:05;;;;;;;6.03;4.83;;;;;;;1.52;100.00;102065.41;1726630;82;21311;-83
2021/03/01 09:21:37;;;;;;;6.80;5.03;;;;;;;1.56;100.00;102069.61;1756252;80;21178;-83
2021/03/01 09:24:06;;;;;;;5.60;4.25;;;;;;;1.59;100.00;102068.30;1756824;81;21190;-83
2021/03/01 09:26:40;;;;;;;4.67;3.98;;;;;;;1.63;100.00;102061.40;1784293;80;21363;-83
2021/03/01 09:29:20;;;;;;;5.25;3.92;;;;;;;1.66;100.00;102065.19;1784213;80;21590;-83
2021/03/01 09:31:54;;;;;;;5.30;3.90;;;;;;;1.71;100.00;102068.55;1756868;81;21183;-83
2021/03/01 09:34:27;;;;;;;4.85;3.62;;;;;;;1.76;100.00;102077.03;1784243;80;21574;-83
2021/03/01 09:36:57;;;;;;;4.10;3.50;;;;;;;1.75;100.00;102075.78;1776191;80;21475;-83
2021/03/01 09:39:26;;;;;;;3.47;3.17;;;;;;;1.71;100.00;102083.97;1721815;83;22357;-83
2021/03/01 09:41:56;;;;;;;3.87;3.20;;;;;;;1.67;100.00;102078.45;1753182;81;21170;-83
2021/03/01 09:44:31;;;;;;;4.92;3.42;;;;;;;1.65;100.00;102075.05;1726585;81;21210;-83
2021/03/01 09:47:00;;;;;;;3.87;3.20;;;;;;;1.63;100.00;102077.64;1753227;80;21094;-84
2021/03/01 09:49:32;;;;;;;5.53;3.40;;;;;;;1.64;100.00;102075.94;1724334;81;21079;-83
2021/03/01 09:52:01;;;;;;;3.52;2.85;;;;;;;1.65;100.00;102078.89;1723733;83;21375;-86
2021/03/01 09:54:31;;;;;;;3.30;2.87;;;;;;;1.69;100.00;102089.55;1753111;80;21597;-86
2021/03/01 09:57:08;;;;;;;3.75;3.22;;;;;;;1.70;100.00;102092.54;1753361;81;21194;-86
2021/03/01 09:59:39;;;;;;;3.85;3.45;;;;;;;1.72;100.00;102090.80;1726636;83;21194;-86
2021/03/01 10:02:20;;;;;;;4.50;3.60;;;;;;;1.74;100.00;102096.74;1753401;80;22087;-86
2021/03/01 10:04:51;;;;;;;3.58;2.70;;;;;;;1.77;100.00;102100.56;1726852;82;21349;-86
2021/03/01 10:07:28;;;;;;;3.40;3.10;;;;;;;1.80;100.00;102093.25;1753303;81;21190;-86
2021/03/01 10:09:57;;;;;;;3.98;3.25;;;;;;;1.81;100.00;102100.92;1753570;81;22065;-86
2021/03/01 10:12:26;;;;;;;3.65;3.20;;;;;;;1.83;100.00;102095.78;1726638;83;21192;-86
2021/03/01 10:14:59;;;;;;;4.37;3.98;;;;;;;1.86;100.00;102092.73;1753338;80;21542;-86
2021/03/01 10:17:29;;;;;;;5.37;4.17;;;;;;;1.94;100.00;102090.48;1726649;83;21374;-86
2021/03/01 10:20:10;;;;;;;6.95;4.83;;;;;;;1.99;100.00;102087.39;1753418;81;21078;-86
2021/03/01 10:23:04;;;;;;;5.25;4.10;;;;;;;2.02;100.00;102087.36;1753461;81;21563;-86
2021/03/01 10:25:41;;;;;;;5.35;4.30;;;;;;;2.05;100.00;102079.16;1726650;83;21194;-86
2021/03/01 10:28:26;;;;;;;6.95;5.37;;;;;;;2.09;100.00;102079.95;1753364;81;21417;-86
2021/03/01 10:31:13;;;;;;;8.08;5.60;;;;;;;2.19;100.00;102082.80;1726477;82;21571;-86
2021/03/01 10:36:57;;;;;;;8.73;5.37;;;;;;;2.41;100.00;102077.28;1888885;76;22299;-87
2021/03/01 10:39:39;;;;;;;6.15;4.67;;;;;;;2.42;100.00;102081.55;1855034;77;21192;-86
2021/03/01 10:42:15;;;;;;;4.92;4.42;;;;;;;2.40;100.00;102093.58;1857210;77;21581;-88
2021/03/01 10:44:57;;;;;;;8.18;5.35;;;;;;;2.36;100.00;102088.09;1785045;80;20989;-87
2021/03/01 10:50:22;;;;;;;6.67;5.70;;;;;;;2.42;100.00;102096.98;1841024;78;22870;-86
2021/03/01 10:52:50;;;;;;;8.80;6.08;;;;;;;2.41;100.00;102095.28;1816270;79;21151;-86
2021/03/01 10:55:18;;;;;;;7.22;6.10;;;;;;;2.46;100.00;102099.06;1816192;79;21412;-86
2021/03/01 10:57:46;;;;;;;7.22;4.90;;;;;;;2.43;100.00;102089.69;1816195;79;21155;-86
2021/03/01 11:00:16;;;;;;;6.50;5.10;;;;;;;2.38;100.00;102099.18;1804166;78;21154;-87
2021/03/01 11:02:44;;;;;;;7.78;5.25;;;;;;;2.32;100.00;102089.00;1793471;79;21565;-85
2021/03/01 11:09:43;;;;;;;6.08;4.97;;;;;;;2.30;100.00;102099.33;1760514;80;21195;-86
2021/03/01 11:16:07;;;;;;;7.80;5.12;;;;;;;2.39;100.00;102106.02;1750125;80;21123;-87
2021/03/01 11:18:35;;;;;;;7.22;4.83;;;;;;;2.50;100.00;102103.26;1755111;80;21119;-87
2021/03/01 11:31:56;;;;;;;3.85;3.45;;;;;;;2.67;100.00;102099.95;1755637;80;21175;-84
2021/03/01 11:34:56;;;;;;;6.42;3.80;;;;;;;2.66;100.00;102098.70;1743821;82;21089;-86
2021/03/01 11:37:28;;;;;;;6.08;3.67;;;;;;;2.64;100.00;102103.02;1743741;81;21176;-86
2021/03/01 11:39:57;;;;;;;5.85;3.30;;;;;;;2.66;100.00;102098.70;1746445;80;21200;-86
2021/03/01 11:42:25;;;;;;;4.45;3.75;;;;;;;2.70;100.00;102101.62;1764870;80;21159;-86
2021/03/01 11:45:24;;;;;;;4.85;3.50;;;;;;;2.73;100.00;102096.43;1760022;80;21152;-86
2021/03/01 11:48:20;;;;;;;6.47;4.42;;;;;;;2.77;100.00;102095.48;1724099;82;21177;-85
2021/03/01 11:50:55;;;;;;;9.65;4.40;;;;;;;2.81;100.00;102094.56;1723413;82;21116;-87
2021/03/01 11:53:24;;;;;;;6.28;3.25;;;;;;;2.88;100.00;102094.44;1734137;81;22377;-87
2021/03/01 11:55:55;;;;;;;5.75;3.77;;;;;;;2.90;100.00;102090.95;1782097;80;21128;-86
2021/03/01 11:58:24;;;;;;;;;;;;;;;2.92;100.00;102090.95;1778169;80;21179;-86
2021/03/01 12:00:58;;;;;;;6.37;3.70;;;;;;;2.97;100.00;102096.84;1759749;80;20258;-87
2021/03/01 12:03:28;;;;;;;6.03;3.72;;;;;;;3.00;100.00;102095.51;1772368;80;21491;-85
2021/03/01 12:05:56;;;;;;;12.53;5.37;;;;;;;3.00;100.00;102092.48;1780648;80;21186;-85
2021/03/01 12:08:25;;;;;;;5.28;4.72;;;;;;;3.00;100.00;102095.51;1780616;80;21144;-85
2021/03/01 12:10:54;;;;;;;10.93;5.45;;;;;;;2.98;100.00;102095.52;1760870;80;21191;-85
2021/03/01 12:13:22;;;;;;;6.35;5.30;;;;;;;2.98;100.00;102093.39;1756637;81;21165;-85
2021/03/01 12:15:50;;;;;;;8.80;5.90;;;;;;;2.97;100.00;102094.27;1746136;82;21788;-87
2021/03/01 12:18:18;;;;;;;7.17;5.45;;;;;;;3.00;100.00;102099.37;1746203;81;22224;-86
2021/03/01 12:20:47;;;;;;;6.92;5.83;;;;;;;2.98;100.00;102095.97;1747948;80;21139;-87
2021/03/01 12:23:16;;;;;;;5.35;4.33;;;;;;;2.97;100.00;102093.81;1758193;80;21108;-86
2021/03/01 12:25:44;;;;;;;5.33;3.85;;;;;;;2.95;100.00;102093.02;1759354;80;21558;-85
2021/03/01 12:28:12;;;;;;;4.95;4.15;;;;;;;2.99;100.00;102093.81;1760629;80;21163;-87
2021/03/01 12:30:41;;;;;;;8.13;3.80;;;;;;;3.02;100.00;102095.02;1759961;80;21478;-87
2021/03/01 12:33:10;;;;;;;6.12;4.95;;;;;;;3.04;100.00;102095.01;1752426;80;21204;-87
2021/03/01 12:35:40;;;;;;;6.50;4.55;;;;;;;3.09;100.00;102094.02;1756849;80;21199;-87
2021/03/01 12:38:09;;;;;;;4.30;3.90;;;;;;;3.12;100.00;102096.53;1753879;80;21634;-87
2021/03/01 12:40:38;;;;;;;7.40;5.33;;;;;;;3.11;100.00;102092.27;1755754;80;21168;-87
2021/03/01 12:43:07;;;;;;;7.08;6.08;;;;;;;3.12;100.00;102092.67;1751402;80;21366;-87
2021/03/01 12:45:35;;;;;;;7.70;6.08;;;;;;;3.14;100.00;102092.21;1752675;80;21064;-87
2021/03/01 12:48:04;;;;;;;9.03;5.42;;;;;;;3.21;100.00;102099.80;1757024;80;21723;-86
2021/03/01 12:50:32;;;;;;;8.15;6.12;;;;;;;3.27;100.00;102104.82;1766801;80;21586;-86
2021/03/01 12:53:00;;;;;;;5.90;5.08;;;;;;;3.30;100.00;102102.20;1805427;79;21610;-86
2021/03/01 12:55:29;;;;;;;6.95;6.05;;;;;;;3.30;100.00;102108.63;1768420;80;21203;-86
2021/03/01 12:57:57;;;;;;;5.05;3.90;;;;;;;3.25;100.00;102116.45;1768256;80;21219;-86
2021/03/01 13:00:25;;;;;;;5.75;3.83;;;;;;;3.20;100.00;102118.28;1758241;80;21156;-86
2021/03/01 13:02:57;;;;;;;4.12;3.60;;;;;;;3.14;100.00;102114.09;1737857;82;21195;-86
2021/03/01 13:05:26;;;;;;;6.92;5.33;;;;;;;3.11;100.00;102120.58;1735371;81;21068;-86
2021/03/01 13:07:54;;;;;;;14.15;9.58;;;;;;;3.12;100.00;102120.98;1748729;81;21493;-86
2021/03/01 13:10:23;;;;;;;5.50;4.70;;;;;;;3.11;100.00;102128.30;1740243;81;21245;-86
2021/03/01 13:12:52;;;;;;;6.08;4.67;;;;;;;3.09;100.00;102123.61;1737938;82;21217;-86
2021/03/01 13:15:20;;;;;;;6.03;4.22;;;;;;;3.09;100.00;102130.05;1737917;82;21197;-86
2021/03/01 13:17:48;;;;;;;10.20;7.33;;;;;;;3.09;100.00;102128.76;1743801;81;21187;-86
2021/03/01 13:20:17;;;;;;;10.20;8.65;;;;;;;3.08;100.00;102130.95;1754523;80;21536;-86
2021/03/01 13:22:45;;;;;;;7.30;6.15;;;;;;;3.05;100.00;102132.28;1755895;81;21125;-86
2021/03/01 13:25:14;;;;;;;5.75;4.80;;;;;;;3.01;100.00;102126.77;1750454;81;21117;-84
2021/03/01 13:27:41;;;;;;;8.20;4.20;;;;;;;2.97;100.00;102132.42;1750356;80;21176;-84
2021/03/01 13:30:12;;;;;;;7.30;5.65;;;;;;;2.97;100.00;102129.01;1734273;82;21164;-84
2021/03/01 13:32:42;;;;;;;5.20;4.20;;;;;;;2.99;100.00;102126.81;1764625;81;22368;-84
2021/03/01 13:35:11;;;;;;;5.83;4.58;;;;;;;2.99;100.00;102119.55;1741281;81;21152;-84
2021/03/01 13:37:39;;;;;;;6.25;5.00;;;;;;;3.00;100.00;102115.64;1735011;81;21147;-84
2021/03/01 13:40:08;;;;;;;8.20;5.47;;;;;;;3.01;100.00;102119.05;1712209;82;21144;-84
2021/03/01 13:42:38;;;;;;;8.78;4.22;;;;;;;3.04;100.00;102124.61;1706792;84;21587;-84
2021/03/01 13:45:10;;;;;;;6.62;3.77;;;;;;;3.05;100.00;102119.42;1736464;82;21376;-84
2021/03/01 13:47:40;;;;;;;5.85;4.85;;;;;;;3.07;100.00;102118.95;1706892;84;22116;-84
2021/03/01 13:50:10;;;;;;;24.17;10.27;;;;;;;3.06;100.00;102123.69;1705557;83;21604;-84
2021/03/01 13:52:40;;;;;;;18.07;10.20;;;;;;;3.00;100.00;102123.36;1736195;82;21208;-84
2021/03/01 13:55:11;;;;;;;8.60;6.35;;;;;;;2.98;100.00;102122.98;1729206;82;21159;-84
2021/03/01 13:57:39;;;;;;;6.67;4.78;;;;;;;2.97;100.00;102125.15;1714982;82;21382;-84
2021/03/01 14:00:10;;;;;;;9.88;6.67;;;;;;;2.97;100.00;102123.86;1741065;81;21188;-84
2021/03/01 14:02:40;;;;;;;8.28;6.22;;;;;;;2.99;100.00;102124.69;1736985;81;21161;-84
2021/03/01 14:05:10;;;;;;;7.80;5.60;;;;;;;3.04;100.00;102122.86;1710654;83;21183;-84
2021/03/01 14:07:39;;;;;;;10.53;5.05;;;;;;;3.10;100.00;102116.76;1721340;82;21129;-84
2021/03/01 14:10:11;;;;;;;7.85;5.33;;;;;;;3.16;100.00;102116.17;1728396;82;21378;-84
2021/03/01 14:12:40;;;;;;;6.70;4.92;;;;;;;3.24;100.00;102125.05;1727477;82;21155;-84
2021/03/01 14:15:10;;;;;;;6.08;4.20;;;;;;;3.31;100.00;102124.49;1725609;82;21137;-84
2021/03/01 14:17:38;;;;;;;5.80;4.05;;;;;;;3.32;100.00;102122.33;1719764;82;21188;-84
2021/03/01 14:20:08;;;;;;;6.70;4.50;;;;;;;3.27;100.00;102128.86;1725990;82;21147;-84
2021/03/01 14:22:36;;;;;;;5.15;4.47;;;;;;;3.21;100.00;102134.11;1721219;82;21347;-84
2021/03/01 14:25:07;;;;;;;5.17;4.28;;;;;;;3.22;100.00;102130.66;1726805;82;21495;-85
2021/03/01 14:27:35;;;;;;;4.65;3.77;;;;;;;3.25;100.00;102134.89;1786086;79;21129;-85
2021/03/01 14:30:05;;;;;;;5.80;4.45;;;;;;;3.27;100.00;102132.72;1773037;81;21554;-84
2021/03/01 14:32:33;;;;;;;4.47;3.80;;;;;;;3.24;100.00;102130.65;1774754;79;21200;-84
2021/03/01 14:35:03;;;;;;;6.50;4.03;;;;;;;3.23;100.00;102127.20;1800189;79;21372;-84
2021/03/01 14:37:32;;;;;;;5.25;3.70;;;;;;;3.25;100.00;102126.75;1787229;79;21167;-85
2021/03/01 14:40:01;;;;;;;10.32;4.30;;;;;;;3.30;100.00;102135.67;1812449;79;21151;-86
2021/03/01 14:42:31;;;;;;;5.90;4.85;;;;;;;3.34;100.00;102135.16;1773983;79;21469;-86
2021/03/01 14:44:59;;;;;;;9.35;5.45;;;;;;;3.32;100.00;102136.49;1772997;81;21147;-86
2021/03/01 14:52:19;;;;;;;8.28;5.85;;;;;;;2.96;100.00;102146.61;1763015;79;21085;-84
2021/03/01 14:54:49;;;;;;;12.30;5.95;;;;;;;2.62;100.00;102156.20;1782891;79;21420;-85
2021/03/01 14:57:17;;;;;;;9.00;6.25;;;;;;;2.46;100.00;102150.48;1777513;79;21116;-84
2021/03/01 15:03:40;;;;;;;26.97;6.62;;;;;;;2.31;100.00;102156.30;1774947;80;21207;-86
2021/03/01 15:06:36;;;;;;;18.40;5.72;;;;;;;2.36;100.00;102152.37;1775103;80;21619;-84
2021/03/01 15:09:07;;;;;;;31.42;6.78;;;;;;;2.46;100.00;102156.47;1774304;80;21697;-88
2021/03/01 15:11:36;;;;;;;19.37;6.70;;;;;;;2.57;100.00;102154.16;1708460;84;21142;-85
2021/03/01 15:14:04;;;;;;;40.55;7.22;;;;;;;2.69;100.00;102155.23;1747724;82;21184;-84
2021/03/01 15:16:36;;;;;;;26.10;7.08;;;;;;;2.80;100.00;102155.90;1708793;83;21354;-85
2021/03/01 15:19:06;;;;;;;12.70;6.08;;;;;;;2.96;100.00;102160.77;1737967;82;21124;-85
2021/03/01 15:21:35;;;;;;;30.12;7.78;;;;;;;3.07;100.00;102159.27;1739409;82;21136;-85
2021/03/01 15:24:04;;;;;;;18.15;6.80;;;;;;;3.16;100.00;102166.83;1775216;79;21171;-85
2021/03/01 15:26:32;;;;;;;13.28;7.75;;;;;;;3.23;100.00;102164.54;1806259;79;21191;-84
2021/03/01 15:29:00;;;;;;;12.98;7.05;;;;;;;3.24;100.00;102167.98;1798267;79;21250;-85
2021/03/01 15:31:28;;;;;;;16.77;7.42;;;;;;;3.20;100.00;102181.35;1782367;79;21498;-85
2021/03/01 15:33:56;;;;;;;18.55;8.30;;;;;;;3.13;100.00;102183.60;1779143;79;21168;-85
2021/03/01 15:36:26;;;;;;;14.15;8.05;;;;;;;3.06;100.00;102188.03;1778890;79;21122;-85
2021/03/01 15:38:55;;;;;;;32.28;9.13;;;;;;;2.99;100.00;102186.45;1785482;79;21114;-85
2021/03/01 15:41:24;;;;;;;14.00;8.50;;;;;;;3.01;100.00;102191.11;1780858;80;21199;-86
2021/03/01 15:43:53;;;;;;;25.43;8.65;;;;;;;3.04;100.00;102194.93;1789580;79;21131;-85
2021/03/01 15:46:21;;;;;;;26.25;8.13;;;;;;;3.05;100.00;102201.78;1793453;79;21142;-85
2021/03/01 15:48:54;;;;;;;16.48;8.00;;;;;;;3.04;100.00;102202.66;1790991;79;21180;-85
2021/03/01 15:51:19;;;;;;;9.50;7.77;;;;;;;3.06;100.00;102209.05;1778040;79;21148;-85
2021/03/01 15:53:47;;;;;;;13.35;7.37;;;;;;;3.01;100.00;102215.56;1791941;79;21206;-85
2021/03/01 15:56:15;;;;;;;17.80;8.45;;;;;;;2.96;100.00;102216.09;1776055;79;21081;-85
2021/03/01 15:58:44;;;;;;;10.38;8.18;;;;;;;2.91;100.00;102225.63;1772865;81;21115;-85
2021/03/01 16:01:12;;;;;;;17.85;9.03;;;;;;;2.81;100.00;102223.63;1759900;81;21565;-85
2021/03/01 16:03:40;;;;;;;28.62;10.00;;;;;;;2.70;100.00;102228.95;1772879;81;21599;-85
2021/03/01 16:06:11;;;;;;;30.30;10.18;;;;;;;2.59;100.00;102226.56;1776503;79;21144;-85
2021/03/01 16:08:39;;;;;;;13.45;8.43;;;;;;;2.48;100.00;102233.16;1781609;79;21184;-85
2021/03/01 16:11:07;;;;;;;17.62;8.78;;;;;;;2.39;100.00;102233.74;1782517;79;21156;-85
2021/03/01 16:13:35;;;;;;;34.67;9.95;;;;;;;2.32;100.00;102237.66;1789446;79;21663;-84
2021/03/01 16:16:05;;;;;;;21.40;10.45;;;;;;;2.28;100.00;102244.19;1783963;79;21132;-85
2021/03/01 16:18:37;;;;;;;23.60;12.33;;;;;;;2.28;100.00;102244.19;1771531;79;21371;-85
2021/03/01 16:21:07;;;;;;;22.87;13.08;;;;;;;2.25;100.00;102249.36;1783867;79;21116;-85
2021/03/01 16:23:37;;;;;;;25.52;13.20;;;;;;;2.19;100.00;102249.87;1780969;79;21148;-85
2021/03/01 16:26:06;;;;;;;19.23;12.37;;;;;;;2.14;100.00;102254.20;1777004;79;21171;-85
2021/03/01 16:28:34;;;;;;;22.13;12.40;;;;;;;2.10;100.00;102254.27;1771914;81;21147;-85
2021/03/01 16:31:03;;;;;;;25.32;13.45;;;;;;;2.07;100.00;102260.30;1771538;79;21198;-85
2021/03/01 16:33:32;;;;;;;35.75;14.00;;;;;;;2.05;100.00;102253.03;1738365;82;21227;-85
2021/03/01 16:36:00;;;;;;;24.55;13.83;;;;;;;2.03;100.00;102258.66;1744167;80;21215;-85
2021/03/01 16:38:35;;;;;;;20.92;12.47;;;;;;;2.03;100.00;102255.63;1754569;81;21167;-85
2021/03/01 16:41:03;;;;;;;18.30;11.33;;;;;;;2.04;100.00;102254.77;1768827;80;21057;-87
2021/03/01 16:43:36;;;;;;;18.90;10.82;;;;;;;2.06;100.00;102249.59;1768847;81;21367;-85
2021/03/01 16:46:05;;;;;;;15.68;10.93;;;;;;;2.06;100.00;102252.17;1752587;80;21629;-85
2021/03/01 16:48:37;;;;;;;15.88;11.12;;;;;;;2.07;100.00;102255.16;1708312;82;21183;-85
2021/03/01 16:51:06;;;;;;;19.95;11.30;;;;;;;2.05;100.00;102260.33;1712015;82;21169;-85
2021/03/01 16:53:37;;;;;;;21.62;11.88;;;;;;;2.01;100.00;102258.65;1711977;83;21136;-85
2021/03/01 16:56:06;;;;;;;22.90;13.68;;;;;;;2.02;100.00;102264.20;1712154;82;22141;-85
2021/03/01 16:58:39;;;;;;;23.67;13.95;;;;;;;2.01;100.00;102263.79;1712007;82;21133;-85
2021/03/01 17:01:05;;;;;;;22.60;13.70;;;;;;;1.94;100.00;102261.33;1712189;82;21128;-86
2021/03/01 17:03:36;;;;;;;27.45;14.90;;;;;;;1.80;100.00;102268.78;1748243;80;21166;-86
2021/03/01 17:06:07;;;;;;;25.12;13.93;;;;;;;1.70;100.00;102271.88;1751152;80;21151;-86
2021/03/01 17:08:38;;;;;;;26.37;13.43;;;;;;;1.68;100.00;102268.91;1745073;81;21559;-86
2021/03/01 17:11:10;;;;;;;23.87;14.28;;;;;;;1.72;100.00;102274.00;1741206;82;21154;-86
2021/03/01 17:13:47;;;;;;;27.37;15.65;;;;;;;1.70;100.00;102275.72;1750625;80;21155;-86
2021/03/01 17:16:20;;;;;;;31.65;15.40;;;;;;;1.68;100.00;102277.90;1744397;81;21161;-86
2021/03/01 17:18:52;;;;;;;27.60;15.43;;;;;;;1.64;100.00;102277.53;1737013;82;21445;-85
2021/03/01 17:21:23;;;;;;;25.68;16.00;;;;;;;1.65;100.00;102271.09;1747598;80;21418;-86
2021/03/01 17:23:57;;;;;;;30.25;20.08;;;;;;;1.69;100.00;102276.59;1751695;80;21191;-86
2021/03/01 17:26:30;;;;;;;29.67;19.23;;;;;;;1.73;100.00;102274.41;1743102;80;21140;-86
2021/03/01 17:29:02;;;;;;;44.38;22.37;;;;;;;1.77;100.00;102281.66;1771975;78;21613;-86
2021/03/01 17:31:31;;;;;;;30.50;20.75;;;;;;;1.73;100.00;102285.97;1791383;79;21566;-86
2021/03/01 17:34:33;;;;;;;34.00;22.45;;;;;;;1.67;100.00;102283.90;1803393;79;21261;-88